Terminal Aerodrome Forecast
Issued by NWS Louisville, KY

Home | Current Version | Previous Version | Text Only | Print | Product List | Glossary On
Versions: 1 2 3 4 5 6 7 8 9 10 11 12 13 14 15 16 17 18 19 20 21 22 23 24 25
116
FTUS43 KLMK 141131
TAFBWG
TAF
KBWG 141131Z 1412/1512 VRB03KT 1SM -DZ BR OVC003
      TEMPO 1412/1415 1/4SM DZ FG VV001
     FM141800 27004KT 2SM -RA BR OVC003
     FM142300 34003KT 4SM BR OVC004
     FM150400 01003KT 2SM -DZ BR OVC002=

USA.gov is the U.S. government's official web portal to all federal, state and local government web resources and services.